createdAt,value
2022-08-03T00:01:50.898Z,2.00
2022-08-03T00:04:17.800Z,2.50
2022-08-03T00:06:44.629Z,2.40
2022-08-03T00:09:11.993Z,2.40
2022-08-03T00:11:38.892Z,1.98
2022-08-03T00:14:06.523Z,2.28
2022-08-03T00:16:33.306Z,1.92
2022-08-03T00:19:00.824Z,2.17
2022-08-03T00:21:28.514Z,2.42
2022-08-03T00:23:55.366Z,1.98
2022-08-03T00:26:22.583Z,2.28
2022-08-03T00:28:50.186Z,2.25
2022-08-03T00:31:23.043Z,2.20
2022-08-03T00:34:03.713Z,1.80
2022-08-03T00:36:31.235Z,1.88
2022-08-03T00:38:58.008Z,2.10
2022-08-03T00:41:24.804Z,1.95
2022-08-03T00:43:51.578Z,2.45
2022-08-03T00:46:21.734Z,2.17
2022-08-03T00:48:53.047Z,2.22
2022-08-03T00:51:21.525Z,2.17
2022-08-03T00:53:48.931Z,2.38
2022-08-03T00:56:17.555Z,2.30
2022-08-03T00:58:46.081Z,2.10
2022-08-03T01:01:14.118Z,2.17
2022-08-03T01:03:41.470Z,2.42
2022-08-03T01:06:18.486Z,1.92
2022-08-03T01:08:51.280Z,2.10
2022-08-03T01:11:24.726Z,1.92
2022-08-03T01:14:03.920Z,1.90
2022-08-03T01:17:47.199Z,2.17
2022-08-03T01:20:16.962Z,4.57
2022-08-03T01:23:24.191Z,3.50
2022-08-03T01:25:56.157Z,3.30
2022-08-03T01:28:39.470Z,2.65
2022-08-03T01:31:10.879Z,2.60
2022-08-03T01:33:43.298Z,2.85
2022-08-03T01:36:13.889Z,2.50
2022-08-03T01:38:49.457Z,2.08
2022-08-03T01:41:21.179Z,2.38
2022-08-03T01:44:26.702Z,2.50
2022-08-03T01:46:40.327Z,2.40
2022-08-03T01:49:15.970Z,2.25
2022-08-03T01:51:57.924Z,2.67
2022-08-03T01:54:36.368Z,2.30
2022-08-03T01:57:04.717Z,2.30
2022-08-03T01:59:34.488Z,2.58
2022-08-03T02:02:16.013Z,2.45
2022-08-03T02:04:52.516Z,2.53
2022-08-03T02:07:19.992Z,2.20
2022-08-03T02:09:50.966Z,2.80
2022-08-03T02:12:20.676Z,2.22
2022-08-03T02:14:49.028Z,2.50
2022-08-03T02:17:16.969Z,2.60
2022-08-03T02:19:44.736Z,2.17
2022-08-03T02:22:14.010Z,2.58
2022-08-03T02:24:41.057Z,2.38
2022-08-03T02:27:18.604Z,2.70
2022-08-03T02:29:50.019Z,3.03
2022-08-03T02:32:25.347Z,2.03
2022-08-03T02:34:55.885Z,2.40
2022-08-03T02:37:26.706Z,2.72
2022-08-03T02:39:59.423Z,2.40
2022-08-03T02:42:29.099Z,2.40
2022-08-03T02:44:58.743Z,2.55
2022-08-03T02:47:28.586Z,2.80
2022-08-03T02:50:17.461Z,2.95
2022-08-03T02:52:45.983Z,2.70
2022-08-03T02:55:14.896Z,2.90
2022-08-03T02:57:44.915Z,2.67
2022-08-03T03:00:12.972Z,2.72
2022-08-03T03:02:47.230Z,2.85
2022-08-03T03:05:55.485Z,2.55
2022-08-03T03:08:03.305Z,2.28
2022-08-03T03:10:45.205Z,2.58
2022-08-03T03:13:13.643Z,2.60
2022-08-03T03:15:41.921Z,2.65
2022-08-03T03:18:10.100Z,2.42
2022-08-03T03:20:39.009Z,2.35
2022-08-03T03:23:06.120Z,2.67
2022-08-03T03:25:33.787Z,2.58
2022-08-03T03:28:01.245Z,2.63
2022-08-03T03:30:30.169Z,2.63
2022-08-03T03:32:58.582Z,2.25
2022-08-03T03:35:27.665Z,2.58
2022-08-03T03:37:54.741Z,2.70
2022-08-03T03:40:22.367Z,2.70
2022-08-03T03:42:50.489Z,3.10
2022-08-03T03:45:17.888Z,2.75
2022-08-03T03:47:44.918Z,2.75
2022-08-03T03:50:12.503Z,2.30
2022-08-03T03:52:39.512Z,2.65
2022-08-03T03:55:06.904Z,2.88
2022-08-03T03:57:35.063Z,2.63
2022-08-03T04:00:01.915Z,3.25
2022-08-03T04:02:31.346Z,2.78
2022-08-03T04:05:36.747Z,2.78
2022-08-03T04:08:33.299Z,3.70
2022-08-03T04:11:30.249Z,2.70
2022-08-03T04:14:07.565Z,2.72
2022-08-03T04:16:43.126Z,2.78
2022-08-03T04:19:29.313Z,2.55
2022-08-03T04:22:00.420Z,3.05
2022-08-03T04:24:39.962Z,2.72
2022-08-03T04:27:09.422Z,2.80
2022-08-03T04:29:46.399Z,2.40
2022-08-03T04:32:17.077Z,2.65
2022-08-03T04:34:44.398Z,2.92
2022-08-03T04:37:28.071Z,2.80
2022-08-03T04:39:58.378Z,2.80
2022-08-03T04:42:26.508Z,2.10
2022-08-03T04:45:00.439Z,2.60
2022-08-03T04:47:30.769Z,2.75
2022-08-03T04:49:57.640Z,2.78
2022-08-03T04:52:24.713Z,2.67
2022-08-03T04:54:52.866Z,2.67
2022-08-03T04:57:23.069Z,2.67
2022-08-03T04:59:58.174Z,2.87
2022-08-03T05:02:29.971Z,2.55
2022-08-03T05:04:56.987Z,2.90
2022-08-03T05:07:25.040Z,2.55
2022-08-03T05:09:57.648Z,2.65
2022-08-03T05:12:32.699Z,2.63
2022-08-03T05:15:00.525Z,2.60
2022-08-03T05:17:28.381Z,3.00
2022-08-03T05:19:55.820Z,2.42
2022-08-03T05:22:23.284Z,2.50
2022-08-03T05:24:50.498Z,2.40
2022-08-03T05:27:20.342Z,2.65
2022-08-03T05:29:49.137Z,2.47
2022-08-03T05:32:17.402Z,2.55
2022-08-03T05:34:44.867Z,2.60
2022-08-03T05:37:11.749Z,2.60
2022-08-03T05:39:38.726Z,2.70
2022-08-03T05:42:05.688Z,2.50
2022-08-03T05:44:32.448Z,2.28
2022-08-03T05:46:59.769Z,2.25
2022-08-03T05:49:26.562Z,2.38
2022-08-03T05:52:08.216Z,2.30
2022-08-03T05:54:56.341Z,2.47
2022-08-03T05:57:25.920Z,2.83
2022-08-03T05:59:54.588Z,2.35
2022-08-03T06:02:27.007Z,2.30
2022-08-03T06:04:54.167Z,2.33
2022-08-03T06:07:21.101Z,2.40
2022-08-03T06:10:35.573Z,2.03
2022-08-03T06:12:36.199Z,2.30
2022-08-03T06:15:04.821Z,1.80
2022-08-03T06:17:37.269Z,1.92
2022-08-03T06:20:05.748Z,2.40
2022-08-03T06:22:32.479Z,2.20
2022-08-03T06:25:03.419Z,2.30
2022-08-03T06:27:36.440Z,2.40
2022-08-03T06:30:04.985Z,2.35
2022-08-03T06:32:32.052Z,2.20
2022-08-03T06:34:58.947Z,2.40
2022-08-03T06:37:27.106Z,2.60
2022-08-03T06:39:54.215Z,2.30
2022-08-03T06:42:21.015Z,2.80
2022-08-03T06:44:49.706Z,2.88
2022-08-03T06:47:16.494Z,2.40
2022-08-03T06:49:43.444Z,2.53
2022-08-03T06:52:10.242Z,2.63
2022-08-03T06:54:37.056Z,2.58
2022-08-03T06:57:04.438Z,2.28
2022-08-03T07:00:09.353Z,2.30
2022-08-03T07:02:21.447Z,2.30
2022-08-03T07:04:49.495Z,2.78
2022-08-03T07:07:17.425Z,2.72
2022-08-03T07:09:57.775Z,2.70
2022-08-03T07:12:27.122Z,2.40
2022-08-03T07:14:59.593Z,2.78
2022-08-03T07:17:28.013Z,2.53
2022-08-03T07:19:54.825Z,2.67
2022-08-03T07:22:21.620Z,2.63
2022-08-03T07:24:48.380Z,2.20
2022-08-03T07:27:16.578Z,2.55
2022-08-03T07:29:43.578Z,2.22
2022-08-03T07:32:10.412Z,2.13
2022-08-03T07:34:37.345Z,2.50
2022-08-03T07:37:04.333Z,2.75
2022-08-03T07:39:31.070Z,2.22
2022-08-03T07:41:57.866Z,2.15
2022-08-03T07:44:24.644Z,3.03
2022-08-03T07:46:51.449Z,2.33
2022-08-03T07:49:19.215Z,2.60
2022-08-03T07:51:45.996Z,2.60
2022-08-03T07:54:12.804Z,2.80
2022-08-03T07:56:39.506Z,2.50
2022-08-03T07:59:06.274Z,2.53
2022-08-03T08:01:36.529Z,2.67
2022-08-03T08:04:04.562Z,2.47
2022-08-03T08:06:32.718Z,2.17
2022-08-03T08:09:02.185Z,2.45
2022-08-03T08:11:29.268Z,2.47
2022-08-03T08:13:56.500Z,2.50
2022-08-03T08:16:23.430Z,2.17
2022-08-03T08:18:50.210Z,2.13
2022-08-03T08:21:16.908Z,2.63
2022-08-03T08:23:48.635Z,2.40
2022-08-03T08:26:23.909Z,2.57
2022-08-03T08:28:52.412Z,2.13
2022-08-03T08:31:19.234Z,2.55
2022-08-03T08:34:03.711Z,2.40
2022-08-03T08:36:35.165Z,2.45
2022-08-03T08:39:02.391Z,2.30
2022-08-03T08:41:31.914Z,2.10
2022-08-03T08:44:00.260Z,2.75
2022-08-03T08:46:27.525Z,2.13
2022-08-03T08:48:55.601Z,2.00
2022-08-03T08:51:43.836Z,2.25
2022-08-03T08:54:16.402Z,2.03
2022-08-03T08:56:44.214Z,1.80
2022-08-03T08:59:11.461Z,2.20
2022-08-03T09:01:38.418Z,2.20
2022-08-03T09:04:09.449Z,2.33
2022-08-03T09:09:06.290Z,1.98
2022-08-03T09:12:00.961Z,1.95
2022-08-03T09:14:35.327Z,2.22
2022-08-03T09:17:06.356Z,2.10
2022-08-03T09:19:34.644Z,2.22
2022-08-03T09:22:29.924Z,2.35
2022-08-03T09:25:22.711Z,1.77
2022-08-03T09:27:47.089Z,2.10
2022-08-03T09:30:32.501Z,1.90
2022-08-03T09:33:02.778Z,1.92
2022-08-03T09:35:53.074Z,1.90
2022-08-03T09:38:24.199Z,1.80
2022-08-03T09:40:52.908Z,1.92
2022-08-03T09:43:25.441Z,1.90
2022-08-03T09:46:05.516Z,1.90
2022-08-03T09:48:35.105Z,1.93
2022-08-03T09:51:14.458Z,1.85
2022-08-03T09:53:58.731Z,1.77
2022-08-03T09:56:44.547Z,1.80
2022-08-03T09:59:12.615Z,1.60
2022-08-03T10:01:41.815Z,1.80
2022-08-03T10:04:14.086Z,1.90
2022-08-03T10:06:41.155Z,1.70
2022-08-03T10:09:13.844Z,1.60
2022-08-03T10:11:42.621Z,1.80
2022-08-03T10:14:18.932Z,1.65
2022-08-03T10:16:47.555Z,1.60
2022-08-03T10:19:15.788Z,1.80
2022-08-03T10:21:53.624Z,1.67
2022-08-03T10:24:26.145Z,1.75
2022-08-03T10:26:56.470Z,2.10
2022-08-03T10:29:26.978Z,1.90
2022-08-03T10:31:58.624Z,1.80
2022-08-03T10:34:35.149Z,1.67
2022-08-03T10:37:09.741Z,1.80
2022-08-03T10:39:36.810Z,1.70
2022-08-03T10:42:05.456Z,2.08
2022-08-03T10:44:40.202Z,1.58
2022-08-03T10:47:10.261Z,1.50
2022-08-03T10:49:38.194Z,1.73
2022-08-03T10:52:12.893Z,2.08
2022-08-03T10:55:11.342Z,1.60
2022-08-03T10:57:48.905Z,1.70
2022-08-03T11:00:19.087Z,1.83
2022-08-03T11:03:06.518Z,2.13
2022-08-03T11:05:36.581Z,1.42
2022-08-03T11:08:32.395Z,1.65
2022-08-03T11:11:28.303Z,1.60
2022-08-03T11:14:04.664Z,1.45
2022-08-03T11:16:47.208Z,1.67
2022-08-03T11:19:17.237Z,1.70
2022-08-03T11:21:49.960Z,1.73
2022-08-03T11:24:43.297Z,1.60
2022-08-03T11:27:20.460Z,1.67
2022-08-03T11:30:09.904Z,1.55
2022-08-03T11:32:48.491Z,1.60
2022-08-03T11:36:05.238Z,1.65
2022-08-03T11:38:32.016Z,1.35
2022-08-03T11:40:58.777Z,1.30
2022-08-03T11:43:33.181Z,1.70
2022-08-03T11:46:02.901Z,1.63
2022-08-03T11:48:32.695Z,1.55
2022-08-03T11:51:04.385Z,1.55
2022-08-03T11:53:31.622Z,1.55
2022-08-03T11:56:02.878Z,1.58
2022-08-03T11:59:01.609Z,1.58
2022-08-03T12:01:22.901Z,1.60
2022-08-03T12:03:51.387Z,1.63
2022-08-03T12:06:18.987Z,1.42
2022-08-03T12:08:46.576Z,1.38
2022-08-03T12:11:15.230Z,1.50
2022-08-03T12:14:45.436Z,1.48
2022-08-03T12:16:37.998Z,1.42
2022-08-03T12:19:06.738Z,1.52
2022-08-03T12:21:33.659Z,1.60
2022-08-03T12:24:02.953Z,1.45
2022-08-03T12:26:30.556Z,1.50
2022-08-03T12:28:58.361Z,1.23
2022-08-03T12:31:25.664Z,1.30
2022-08-03T12:34:02.789Z,1.20
2022-08-03T12:36:32.233Z,1.58
2022-08-03T12:39:04.499Z,1.38
2022-08-03T12:41:35.157Z,1.20
2022-08-03T12:46:39.981Z,1.45
2022-08-03T12:49:09.707Z,2.60
2022-08-03T12:51:42.629Z,1.50
2022-08-03T12:54:16.317Z,1.30
2022-08-03T12:57:19.593Z,1.30
2022-08-03T12:59:52.829Z,1.10
2022-08-03T13:02:23.767Z,1.17
2022-08-03T13:04:52.525Z,1.40
2022-08-03T13:07:21.092Z,1.50
2022-08-03T13:09:55.724Z,1.23
2022-08-03T13:12:27.990Z,1.40
2022-08-03T13:15:01.213Z,1.05
2022-08-03T13:17:28.377Z,1.60
2022-08-03T13:19:56.151Z,1.15
2022-08-03T13:22:27.146Z,1.30
2022-08-03T13:24:58.355Z,1.33
2022-08-03T13:28:04.196Z,1.25
2022-08-03T13:30:13.555Z,1.27
2022-08-03T13:32:45.107Z,1.40
2022-08-03T13:35:12.093Z,1.25
2022-08-03T13:37:43.351Z,1.27
2022-08-03T13:40:14.884Z,1.30
2022-08-03T13:42:41.879Z,1.60
2022-08-03T13:45:10.435Z,1.30
2022-08-03T13:47:38.057Z,1.30
2022-08-03T13:50:05.223Z,1.30
2022-08-03T13:52:35.674Z,1.20
2022-08-03T13:55:04.525Z,1.00
2022-08-03T13:58:06.215Z,1.35
2022-08-03T14:00:26.586Z,1.05
2022-08-03T14:03:16.080Z,1.23
2022-08-03T14:05:43.989Z,1.75
2022-08-03T14:08:11.081Z,1.33
2022-08-03T14:10:40.016Z,1.20
2022-08-03T14:13:07.310Z,1.40
2022-08-03T14:15:37.879Z,1.30
2022-08-03T14:18:07.131Z,1.30
2022-08-03T14:20:50.330Z,1.50
2022-08-03T14:23:21.266Z,1.38
2022-08-03T14:25:52.526Z,1.48
2022-08-03T14:28:24.021Z,1.23
2022-08-03T14:30:55.847Z,1.40
2022-08-03T14:33:23.201Z,1.58
2022-08-03T14:35:50.455Z,1.25
2022-08-03T14:38:18.059Z,1.50
2022-08-03T14:40:45.013Z,1.52
2022-08-03T14:43:11.881Z,1.40
2022-08-03T14:45:39.638Z,1.75
2022-08-03T14:50:29.394Z,1.60
2022-08-03T14:50:55.119Z,1.30
2022-08-03T14:53:22.166Z,1.17
2022-08-03T14:55:50.344Z,1.25
2022-08-03T14:58:19.736Z,1.38
2022-08-03T15:00:48.683Z,1.20
2022-08-03T15:03:17.042Z,1.15
2022-08-03T15:05:44.443Z,1.45
2022-08-03T15:08:11.414Z,1.10
2022-08-03T15:10:40.552Z,1.20
2022-08-03T15:13:12.518Z,1.08
2022-08-03T15:15:39.900Z,1.00
2022-08-03T15:18:07.272Z,1.10
2022-08-03T15:20:44.327Z,1.20
2022-08-03T15:23:14.274Z,1.10
2022-08-03T15:26:04.262Z,0.98
2022-08-03T15:28:30.222Z,0.90
2022-08-03T15:30:57.042Z,1.10
2022-08-03T15:33:23.780Z,1.10
2022-08-03T15:35:50.567Z,1.20
2022-08-03T15:38:17.620Z,1.00
2022-08-03T15:40:44.610Z,0.80
2022-08-03T15:43:11.785Z,0.80
2022-08-03T15:45:40.611Z,0.80
2022-08-03T15:48:09.295Z,0.75
2022-08-03T15:50:36.294Z,0.80
2022-08-03T15:53:03.433Z,0.90
2022-08-03T15:55:31.075Z,1.00
2022-08-03T15:59:10.123Z,0.88
2022-08-03T16:00:47.745Z,1.00
2022-08-03T16:03:14.754Z,0.90
2022-08-03T16:05:41.496Z,1.05
2022-08-03T16:08:13.357Z,0.82
2022-08-03T16:10:40.977Z,1.10
2022-08-03T16:13:08.133Z,0.80
2022-08-03T16:15:38.326Z,1.10
2022-08-03T16:18:08.613Z,1.48
2022-08-03T16:20:35.584Z,0.80
2022-08-03T16:23:11.434Z,1.10
2022-08-03T16:25:42.815Z,1.10
2022-08-03T16:28:14.193Z,1.02
2022-08-03T16:30:43.508Z,0.90
2022-08-03T16:33:11.872Z,0.90
2022-08-03T16:35:45.409Z,1.10
2022-08-03T16:38:15.362Z,0.98
2022-08-03T16:40:47.030Z,1.23
2022-08-03T16:43:18.559Z,0.93
2022-08-03T16:45:46.653Z,1.02
2022-08-03T16:48:14.495Z,1.10
2022-08-03T16:50:42.381Z,1.05
2022-08-03T16:53:10.044Z,1.25
2022-08-03T16:55:53.433Z,1.30
2022-08-03T16:58:34.222Z,1.30
2022-08-03T17:01:21.972Z,1.67
2022-08-03T17:04:01.236Z,1.45
2022-08-03T17:06:33.882Z,1.52
2022-08-03T17:09:03.428Z,1.10
2022-08-03T17:11:32.113Z,1.35
2022-08-03T17:14:01.059Z,1.40
2022-08-03T17:16:30.259Z,1.52
2022-08-03T17:19:02.162Z,1.80
2022-08-03T17:21:32.926Z,1.42
2022-08-03T17:24:12.850Z,1.30
2022-08-03T17:26:46.480Z,2.05
2022-08-03T17:29:23.005Z,1.35
2022-08-03T17:31:53.211Z,1.70
2022-08-03T17:34:20.922Z,1.23
2022-08-03T17:37:26.946Z,1.52
2022-08-03T17:39:58.051Z,1.30
2022-08-03T17:42:32.011Z,1.70
2022-08-03T17:45:06.746Z,1.20
2022-08-03T17:47:42.055Z,1.50
2022-08-03T17:50:25.202Z,1.92
2022-08-03T17:53:15.623Z,1.40
2022-08-03T17:56:07.714Z,1.23
2022-08-03T17:59:12.458Z,1.10
2022-08-03T18:02:14.483Z,1.52
2022-08-03T18:04:57.289Z,1.80
2022-08-03T18:07:41.270Z,1.70
2022-08-03T18:10:11.275Z,1.42
2022-08-03T18:12:51.748Z,1.55
2022-08-03T18:15:34.737Z,1.38
2022-08-03T18:18:10.949Z,1.45
2022-08-03T18:20:41.982Z,1.60
2022-08-03T18:23:24.996Z,1.52
2022-08-03T18:25:59.676Z,1.50
2022-08-03T18:28:31.414Z,1.70
2022-08-03T18:31:00.731Z,1.50
2022-08-03T18:34:17.022Z,1.52
2022-08-03T18:36:31.793Z,1.55
2022-08-03T18:39:02.927Z,1.45
2022-08-03T18:41:33.008Z,1.60
2022-08-03T18:44:08.046Z,1.58
2022-08-03T18:47:01.561Z,1.50
2022-08-03T18:49:46.555Z,1.48
2022-08-03T18:52:18.091Z,1.60
2022-08-03T18:55:19.770Z,1.33
2022-08-03T18:57:53.924Z,1.45
2022-08-03T19:00:24.503Z,1.63
2022-08-03T19:03:20.281Z,1.60
2022-08-03T19:06:15.896Z,1.55
2022-08-03T19:08:55.657Z,1.40
2022-08-03T19:11:28.850Z,1.33
2022-08-03T19:14:21.557Z,1.85
2022-08-03T19:17:07.060Z,2.03
2022-08-03T19:19:44.524Z,2.45
2022-08-03T19:22:16.145Z,3.53
2022-08-03T19:24:47.763Z,1.95
2022-08-03T19:27:15.991Z,2.40
2022-08-03T19:29:58.526Z,2.50
2022-08-03T19:32:31.748Z,2.50
2022-08-03T19:35:01.162Z,2.00
2022-08-03T19:37:38.060Z,2.45
2022-08-03T19:40:10.881Z,2.15
2022-08-03T19:42:43.471Z,1.85
2022-08-03T19:45:14.431Z,2.30
2022-08-03T19:47:54.310Z,1.80
2022-08-03T19:50:21.379Z,1.67
2022-08-03T19:52:49.982Z,1.90
2022-08-03T19:55:18.087Z,2.40
2022-08-03T19:57:49.242Z,2.10
2022-08-03T20:00:19.868Z,1.98
2022-08-03T20:02:47.321Z,2.20
2022-08-03T20:05:18.281Z,1.90
2022-08-03T20:07:47.757Z,1.92
2022-08-03T20:10:17.202Z,2.10
2022-08-03T20:12:45.762Z,1.98
2022-08-03T20:15:13.441Z,2.00
2022-08-03T20:17:56.903Z,2.00
2022-08-03T20:20:31.888Z,1.63
2022-08-03T20:23:00.645Z,1.90
2022-08-03T20:25:38.228Z,1.88
2022-08-03T20:28:14.226Z,1.92
2022-08-03T20:30:44.212Z,2.30
2022-08-03T20:33:12.251Z,1.85
2022-08-03T20:35:49.180Z,1.77
2022-08-03T20:38:18.454Z,2.00
2022-08-03T20:40:50.061Z,2.20
2022-08-03T20:43:17.044Z,1.88
2022-08-03T20:46:00.432Z,2.03
2022-08-03T20:48:37.149Z,2.05
2022-08-03T20:51:05.722Z,2.08
2022-08-03T20:53:59.494Z,1.70
2022-08-03T20:56:32.389Z,1.67
2022-08-03T20:59:07.027Z,3.42
2022-08-03T21:01:42.018Z,10.27
2022-08-03T21:04:11.526Z,14.93
2022-08-03T21:06:53.152Z,12.40
2022-08-03T21:09:25.105Z,7.50
2022-08-03T21:12:08.837Z,6.22
2022-08-03T21:14:43.455Z,11.07
2022-08-03T21:17:19.455Z,5.80
2022-08-03T21:20:00.989Z,9.75
2022-08-03T21:22:33.040Z,4.22
2022-08-03T21:25:03.902Z,4.38
2022-08-03T21:27:32.155Z,3.95
2022-08-03T21:30:08.941Z,5.05
2022-08-03T21:32:40.094Z,4.03
2022-08-03T21:35:10.621Z,2.80
2022-08-03T21:37:41.946Z,2.92
2022-08-03T21:40:12.129Z,3.42
2022-08-03T21:42:40.511Z,3.17
2022-08-03T21:45:13.921Z,2.95
2022-08-03T21:47:44.053Z,2.92
2022-08-03T21:50:12.814Z,2.63
2022-08-03T21:52:45.296Z,2.88
2022-08-03T21:55:20.520Z,2.55
2022-08-03T21:57:52.165Z,2.63
2022-08-03T22:00:21.256Z,3.25
2022-08-03T22:02:55.652Z,2.70
2022-08-03T22:05:28.975Z,2.40
2022-08-03T22:08:10.808Z,2.90
2022-08-03T22:10:37.892Z,2.50
2022-08-03T22:13:04.734Z,3.10
2022-08-03T22:15:32.239Z,1.77
2022-08-03T22:18:03.280Z,2.40
2022-08-03T22:20:30.239Z,2.50
2022-08-03T22:23:04.684Z,2.20
2022-08-03T22:25:40.145Z,2.38
2022-08-03T22:28:10.030Z,1.65
2022-08-03T22:30:37.841Z,2.10
2022-08-03T22:33:11.282Z,2.05
2022-08-03T22:35:47.147Z,2.22
2022-08-03T22:38:16.746Z,2.10
2022-08-03T22:40:44.651Z,2.80
2022-08-03T22:43:11.407Z,2.28
2022-08-03T22:46:07.796Z,1.80
2022-08-03T22:48:28.209Z,2.00
2022-08-03T22:51:00.015Z,2.22
2022-08-03T22:53:26.972Z,2.30
2022-08-03T22:55:55.700Z,2.10
2022-08-03T22:58:22.647Z,3.55
2022-08-03T23:01:01.490Z,9.93
2022-08-03T23:04:00.924Z,5.68
2022-08-03T23:06:26.127Z,4.32
2022-08-03T23:08:57.035Z,2.95
2022-08-03T23:11:25.377Z,5.45
2022-08-03T23:13:54.545Z,9.75
2022-08-03T23:16:28.967Z,6.03
2022-08-03T23:18:59.497Z,3.40
2022-08-03T23:22:00.218Z,3.65
2022-08-03T23:24:25.295Z,4.38
2022-08-03T23:26:58.264Z,2.80
2022-08-03T23:29:26.563Z,1.90
2022-08-03T23:31:54.512Z,2.80
2022-08-03T23:34:42.351Z,2.50
2022-08-03T23:37:12.856Z,2.22
2022-08-03T23:39:42.103Z,2.05
2022-08-03T23:42:12.647Z,2.42
2022-08-03T23:44:45.893Z,2.40
2022-08-03T23:47:16.728Z,2.55
2022-08-03T23:49:43.940Z,2.30
2022-08-03T23:52:26.443Z,2.15
2022-08-03T23:55:20.581Z,2.17
2022-08-03T23:58:11.179Z,1.92
